Time;durP1;ratioP1;P1;durP2;ratioP2;P2;SDS_P1;SDS_P2;PMS_P1;PMS_P2;Temp;Humidity;BMP_temperature;BMP_pressure;BME280_temperature;BME280_humidity;BME280_pressure;Samples;Min_cycle;Max_cycle;Signal;HPM_P1;HPM_P2
2022/01/30 00:00:44;;;;;;;8.37;3.40;;;;;;;;;;5013850;28;20285;-92
2022/01/30 00:03:22;;;;;;;28.27;7.77;;;;;;;;;;5013441;28;20293;-92
2022/01/30 00:05:52;;;;;;;22.70;5.73;;;;;;;;;;5013249;28;20202;-92
2022/01/30 00:08:22;;;;;;;19.97;6.20;;;;;;;;;;5013533;28;20255;-91
2022/01/30 00:10:58;;;;;;;18.13;6.63;;;;;;;;;;5013368;28;20213;-92
2022/01/30 00:13:32;;;;;;;11.30;4.83;;;;;;;;;;5013951;28;20185;-92
2022/01/30 00:16:07;;;;;;;11.77;3.67;;;;;;;;;;5013902;28;20220;-92
2022/01/30 00:18:52;;;;;;;14.97;5.40;;;;;;;;;;5013871;28;20309;-92
2022/01/30 00:21:34;;;;;;;16.50;6.10;;;;;;;;;;5013748;28;20205;-92
2022/01/30 00:26:48;;;;;;;15.00;4.23;;;;;;;;;;5010381;28;20210;-90
2022/01/30 00:29:18;;;;;;;13.10;4.87;;;;;;;;;;5012388;28;20230;-91
2022/01/30 00:31:59;;;;;;;10.50;3.50;;;;;;;;;;5013825;28;20206;-91
2022/01/30 00:34:48;;;;;;;12.80;5.60;;;;;;;;;;5000010;28;20206;-91
2022/01/30 00:37:18;;;;;;;14.13;4.43;;;;;;;;;;5013432;28;20216;-91
2022/01/30 00:39:48;;;;;;;9.07;4.90;;;;;;;;;;5012425;28;20212;-92
2022/01/30 00:42:26;;;;;;;16.53;5.37;;;;;;;;;;5015565;28;20232;-93
2022/01/30 00:45:06;;;;;;;23.47;6.23;;;;;;;;;;5032479;28;20210;-91
2022/01/30 00:47:58;;;;;;;25.77;5.80;;;;;;;;;;5033229;28;20227;-91
2022/01/30 00:50:29;;;;;;;15.77;6.60;;;;;;;;;;5016197;28;20199;-92
2022/01/30 00:52:59;;;;;;;25.63;6.67;;;;;;;;;;5032884;28;20202;-91
2022/01/30 00:55:30;;;;;;;22.63;6.47;;;;;;;;;;5033237;28;20206;-90
2022/01/30 00:58:02;;;;;;;16.47;9.10;;;;;;;;;;5032748;28;20203;-91
2022/01/30 01:00:36;;;;;;;11.77;2.93;;;;;;;;;;5015704;28;20215;-92
2022/01/30 01:03:08;;;;;;;15.73;3.60;;;;;;;;;;5032808;28;20286;-92
2022/01/30 01:05:43;;;;;;;16.67;4.90;;;;;;;;;;5032832;28;20284;-91
2022/01/30 01:08:18;;;;;;;14.77;5.07;;;;;;;;;;5032725;28;20230;-92
2022/01/30 01:10:57;;;;;;;10.23;4.73;;;;;;;;;;5016096;28;20213;-92
2022/01/30 01:24:49;;;;;;;11.47;4.30;;;;;;;;;;5031001;28;20214;-92
2022/01/30 01:27:20;;;;;;;8.47;2.73;;;;;;;;;;5031947;28;20264;-92
2022/01/30 01:29:52;;;;;;;7.67;3.27;;;;;;;;;;5031826;28;20232;-92
2022/01/30 01:32:22;;;;;;;8.13;2.93;;;;;;;;;;5032778;28;20199;-91
2022/01/30 01:34:53;;;;;;;9.07;2.87;;;;;;;;;;5032068;28;20235;-92
2022/01/30 01:37:23;;;;;;;3.67;2.00;;;;;;;;;;5032674;28;20223;-91
2022/01/30 01:39:56;;;;;;;8.43;3.40;;;;;;;;;;5032611;28;20206;-91
2022/01/30 01:42:32;;;;;;;14.77;3.93;;;;;;;;;;5032037;28;20211;-91
2022/01/30 01:45:03;;;;;;;9.07;3.57;;;;;;;;;;5032630;28;20199;-91
2022/01/30 01:47:34;;;;;;;17.73;5.97;;;;;;;;;;5031931;28;20213;-91
2022/01/30 01:50:16;;;;;;;15.40;4.30;;;;;;;;;;5032900;28;20222;-91
2022/01/30 01:52:46;;;;;;;9.97;3.40;;;;;;;;;;5036226;28;20230;-91
2022/01/30 01:55:20;;;;;;;14.07;4.33;;;;;;;;;;5037200;28;20201;-91
2022/01/30 01:57:55;;;;;;;14.17;3.77;;;;;;;;;;5036345;28;20234;-91
2022/01/30 02:00:27;;;;;;;5.77;3.10;;;;;;;;;;5035311;28;20209;-91
2022/01/30 02:02:58;;;;;;;5.83;1.90;;;;;;;;;;5036082;28;20239;-92
2022/01/30 02:05:34;;;;;;;5.73;2.47;;;;;;;;;;5035632;28;20208;-92
2022/01/30 02:10:55;;;;;;;9.30;3.67;;;;;;;;;;5034529;28;20204;-91
2022/01/30 02:13:46;;;;;;;9.77;2.73;;;;;;;;;;5036432;28;20207;-92
2022/01/30 02:25:37;;;;;;;4.20;2.27;;;;;;;;;;5022582;28;20211;-91
2022/01/30 02:28:11;;;;;;;9.10;2.17;;;;;;;;;;5036465;28;20207;-91
2022/01/30 02:30:47;;;;;;;6.63;2.97;;;;;;;;;;5035957;28;20197;-91
2022/01/30 02:33:19;;;;;;;8.07;2.90;;;;;;;;;;5019442;28;20217;-91
2022/01/30 02:35:51;;;;;;;4.17;2.93;;;;;;;;;;5036229;28;20223;-91
2022/01/30 02:38:27;;;;;;;8.13;3.40;;;;;;;;;;5035394;28;20207;-90
2022/01/30 02:41:03;;;;;;;20.37;2.90;;;;;;;;;;5036008;28;20196;-90
2022/01/30 02:43:47;;;;;;;17.47;3.77;;;;;;;;;;5036139;28;20192;-91
2022/01/30 02:46:29;;;;;;;9.43;3.37;;;;;;;;;;5036323;28;20207;-91
2022/01/30 02:49:23;;;;;;;11.53;3.27;;;;;;;;;;5035474;28;20215;-91
2022/01/30 02:51:57;;;;;;;5.87;2.13;;;;;;;;;;5035547;28;20195;-92
2022/01/30 02:54:31;;;;;;;3.47;2.50;;;;;;;;;;5035311;28;20211;-91
2022/01/30 02:57:05;;;;;;;7.37;2.47;;;;;;;;;;5035142;28;20304;-90
2022/01/30 02:59:39;;;;;;;9.63;2.77;;;;;;;;;;5036328;28;20259;-91
2022/01/30 03:02:08;;;;;;;5.33;2.63;;;;;;;;;;5035079;28;20208;-91
2022/01/30 03:04:40;;;;;;;12.57;3.80;;;;;;;;;;5036838;28;20204;-91
2022/01/30 03:07:10;;;;;;;11.70;3.60;;;;;;;;;;5037272;28;20243;-90
2022/01/30 03:09:42;;;;;;;10.30;3.97;;;;;;;;;;5037328;28;20220;-91
2022/01/30 03:12:15;;;;;;;17.87;3.13;;;;;;;;;;5036597;28;20288;-91
2022/01/30 03:14:48;;;;;;;12.03;3.87;;;;;;;;;;5036086;28;20215;-91
2022/01/30 03:17:24;;;;;;;4.33;2.33;;;;;;;;;;5035245;28;20234;-91
2022/01/30 03:19:55;;;;;;;2.30;2.17;;;;;;;;;;5035063;28;20263;-92
2022/01/30 03:22:27;;;;;;;14.27;4.03;;;;;;;;;;5034960;28;20204;-92
2022/01/30 03:25:00;;;;;;;15.23;6.80;;;;;;;;;;5035406;28;20196;-92
2022/01/30 03:27:51;;;;;;;10.63;3.60;;;;;;;;;;5034578;28;20226;-92
2022/01/30 03:30:28;;;;;;;15.10;4.63;;;;;;;;;;5035090;28;20231;-91
2022/01/30 03:33:00;;;;;;;18.53;4.03;;;;;;;;;;5035241;28;20199;-92
2022/01/30 03:35:31;;;;;;;8.70;2.07;;;;;;;;;;5035556;28;20192;-91
2022/01/30 03:38:03;;;;;;;13.23;2.87;;;;;;;;;;5034896;28;20211;-90
2022/01/30 03:40:37;;;;;;;5.10;3.07;;;;;;;;;;5035164;28;20259;-90
2022/01/30 03:43:11;;;;;;;15.87;4.63;;;;;;;;;;5035457;28;20263;-90
2022/01/30 03:45:46;;;;;;;8.40;3.30;;;;;;;;;;5035082;28;20197;-90
2022/01/30 03:48:17;;;;;;;5.47;2.83;;;;;;;;;;5034933;28;20207;-91
2022/01/30 03:50:48;;;;;;;14.97;4.13;;;;;;;;;;5034684;28;20208;-91
2022/01/30 03:53:19;;;;;;;14.03;3.70;;;;;;;;;;5034748;28;20211;-90
2022/01/30 03:55:50;;;;;;;10.70;4.07;;;;;;;;;;5032393;28;20208;-90
2022/01/30 03:58:24;;;;;;;10.33;3.43;;;;;;;;;;5034249;28;20211;-91
2022/01/30 04:00:59;;;;;;;10.57;4.07;;;;;;;;;;5034623;28;20202;-91
2022/01/30 04:03:32;;;;;;;7.63;3.07;;;;;;;;;;5034498;28;20255;-91
2022/01/30 04:06:03;;;;;;;10.97;4.00;;;;;;;;;;5034222;28;20230;-90
2022/01/30 04:08:33;;;;;;;7.77;2.53;;;;;;;;;;5034357;28;20217;-90
2022/01/30 04:11:07;;;;;;;6.47;2.63;;;;;;;;;;5033649;28;20223;-90
2022/01/30 04:13:39;;;;;;;12.13;3.03;;;;;;;;;;5034384;28;20185;-89
2022/01/30 04:16:14;;;;;;;10.43;4.70;;;;;;;;;;5032374;28;20202;-91
2022/01/30 04:18:45;;;;;;;8.10;3.30;;;;;;;;;;5016889;28;20243;-90
2022/01/30 04:21:16;;;;;;;11.37;4.10;;;;;;;;;;5034021;28;20275;-90
2022/01/30 04:23:46;;;;;;;16.47;4.60;;;;;;;;;;5033516;28;20231;-90
2022/01/30 04:26:16;;;;;;;10.97;3.70;;;;;;;;;;5033650;28;20190;-91
2022/01/30 04:28:48;;;;;;;6.37;3.80;;;;;;;;;;5034161;28;20215;-91
2022/01/30 04:31:23;;;;;;;10.67;4.93;;;;;;;;;;5033872;28;20270;-91
2022/01/30 04:34:02;;;;;;;11.70;4.33;;;;;;;;;;5033803;28;20218;-91
2022/01/30 04:36:39;;;;;;;16.77;5.03;;;;;;;;;;5032839;28;20226;-91
2022/01/30 04:39:16;;;;;;;12.97;3.87;;;;;;;;;;5033354;28;20205;-91
2022/01/30 04:42:06;;;;;;;6.10;2.50;;;;;;;;;;5033467;28;20215;-91
2022/01/30 04:53:22;;;;;;;12.03;4.03;;;;;;;;;;5028413;28;20209;-91
2022/01/30 04:56:48;;;;;;;13.73;6.50;;;;;;;;;;5033425;28;20311;-91
2022/01/30 04:59:19;;;;;;;15.30;4.77;;;;;;;;;;5032711;28;20271;-91
2022/01/30 05:02:09;;;;;;;13.50;4.30;;;;;;;;;;5033433;28;20206;-91
2022/01/30 05:04:52;;;;;;;21.83;3.67;;;;;;;;;;5033529;28;20207;-91
2022/01/30 05:07:33;;;;;;;10.90;5.20;;;;;;;;;;5033312;28;20264;-91
2022/01/30 05:10:05;;;;;;;5.80;2.40;;;;;;;;;;5033312;28;20253;-91
2022/01/30 05:12:46;;;;;;;12.57;4.80;;;;;;;;;;5032822;28;20214;-90
2022/01/30 05:15:23;;;;;;;14.80;5.37;;;;;;;;;;5033340;28;20207;-91
2022/01/30 05:18:00;;;;;;;10.53;3.73;;;;;;;;;;5033021;28;20206;-91
2022/01/30 05:20:31;;;;;;;14.93;3.07;;;;;;;;;;5033085;28;20238;-89
2022/01/30 05:23:07;;;;;;;17.03;4.27;;;;;;;;;;5033011;28;20226;-91
2022/01/30 05:25:41;;;;;;;23.17;6.07;;;;;;;;;;5032410;28;20286;-92
2022/01/30 05:28:22;;;;;;;13.17;4.33;;;;;;;;;;5032971;28;20228;-90
2022/01/30 05:30:57;;;;;;;19.50;4.70;;;;;;;;;;5033039;28;20223;-90
2022/01/30 05:33:31;;;;;;;16.67;4.47;;;;;;;;;;5033307;28;20219;-91
2022/01/30 05:36:01;;;;;;;9.83;3.23;;;;;;;;;;5033230;28;20280;-90
2022/01/30 05:38:36;;;;;;;5.83;3.30;;;;;;;;;;5016352;28;20215;-91
2022/01/30 05:41:11;;;;;;;7.07;3.57;;;;;;;;;;5032794;28;20200;-91
2022/01/30 05:43:45;;;;;;;23.80;4.63;;;;;;;;;;5033256;28;20191;-91
2022/01/30 05:46:30;;;;;;;15.80;3.63;;;;;;;;;;5032820;28;20205;-91
2022/01/30 05:49:03;;;;;;;2.50;2.07;;;;;;;;;;5032530;28;20227;-91
2022/01/30 05:51:37;;;;;;;17.43;4.43;;;;;;;;;;5016465;28;20226;-90
2022/01/30 05:54:09;;;;;;;4.13;3.20;;;;;;;;;;5032551;28;20211;-91
2022/01/30 05:56:43;;;;;;;17.60;5.13;;;;;;;;;;5032949;28;20204;-91
2022/01/30 05:59:12;;;;;;;14.37;3.97;;;;;;;;;;5032152;28;20203;-91
2022/01/30 06:01:44;;;;;;;12.67;4.23;;;;;;;;;;5032633;28;20195;-92
2022/01/30 06:04:18;;;;;;;16.07;6.27;;;;;;;;;;5032689;28;20244;-91
2022/01/30 06:06:56;;;;;;;11.70;5.10;;;;;;;;;;5033434;28;20222;-91
2022/01/30 06:09:30;;;;;;;12.13;3.23;;;;;;;;;;5032685;28;20200;-91
2022/01/30 06:12:04;;;;;;;6.53;2.70;;;;;;;;;;5030725;28;20215;-91
2022/01/30 06:14:36;;;;;;;8.37;5.00;;;;;;;;;;5032156;28;20268;-91
2022/01/30 06:17:10;;;;;;;14.33;4.33;;;;;;;;;;5033194;28;20211;-90
2022/01/30 06:19:44;;;;;;;16.33;9.97;;;;;;;;;;5032830;28;20254;-91
2022/01/30 06:22:16;;;;;;;33.70;5.73;;;;;;;;;;5032768;28;20314;-91
2022/01/30 06:24:48;;;;;;;6.57;2.60;;;;;;;;;;5032459;28;20294;-91
2022/01/30 06:27:20;;;;;;;13.13;2.33;;;;;;;;;;5032491;28;20207;-91
2022/01/30 06:29:51;;;;;;;7.93;4.30;;;;;;;;;;5031957;28;20215;-91
2022/01/30 06:32:27;;;;;;;4.00;2.60;;;;;;;;;;5032616;28;20231;-91
2022/01/30 06:35:00;;;;;;;9.87;2.93;;;;;;;;;;5033066;28;20266;-89
2022/01/30 06:37:34;;;;;;;16.10;4.60;;;;;;;;;;5034957;28;20188;-90
2022/01/30 06:40:09;;;;;;;18.97;4.40;;;;;;;;;;5036432;28;20208;-90
2022/01/30 06:42:45;;;;;;;17.80;5.37;;;;;;;;;;5036322;28;20179;-90
2022/01/30 06:45:24;;;;;;;15.67;5.90;;;;;;;;;;5036985;28;20218;-91
2022/01/30 06:47:53;;;;;;;11.20;5.03;;;;;;;;;;5036176;28;20192;-89
2022/01/30 06:50:25;;;;;;;2.20;1.67;;;;;;;;;;5036657;28;20203;-91
2022/01/30 06:52:59;;;;;;;11.70;4.60;;;;;;;;;;5035982;28;20200;-90
2022/01/30 06:55:33;;;;;;;12.63;3.47;;;;;;;;;;5036302;28;20206;-90
2022/01/30 06:58:21;;;;;;;12.37;3.80;;;;;;;;;;5035777;28;20207;-91
2022/01/30 07:00:50;;;;;;;10.10;4.73;;;;;;;;;;5035934;28;20191;-91
2022/01/30 07:03:25;;;;;;;13.87;4.10;;;;;;;;;;5035799;28;20225;-91
2022/01/30 07:06:02;;;;;;;8.60;3.13;;;;;;;;;;5018190;28;20235;-91
2022/01/30 07:08:35;;;;;;;18.73;4.63;;;;;;;;;;5035896;28;20211;-91
2022/01/30 07:11:05;;;;;;;19.60;4.40;;;;;;;;;;5036100;28;20287;-90
2022/01/30 07:13:37;;;;;;;14.37;4.70;;;;;;;;;;5035688;28;20200;-90
2022/01/30 07:16:22;;;;;;;9.57;3.30;;;;;;;;;;5036015;28;20216;-91
2022/01/30 07:19:01;;;;;;;25.77;6.30;;;;;;;;;;5019055;28;20191;-91
2022/01/30 07:21:35;;;;;;;10.43;3.90;;;;;;;;;;5035538;28;20199;-90
2022/01/30 07:24:09;;;;;;;7.10;2.60;;;;;;;;;;5034950;28;20218;-91
2022/01/30 07:26:41;;;;;;;13.70;5.10;;;;;;;;;;5035299;28;20212;-91
2022/01/30 07:29:14;;;;;;;11.67;2.93;;;;;;;;;;5018157;28;20195;-90
2022/01/30 07:31:45;;;;;;;8.90;4.00;;;;;;;;;;5034728;28;20283;-90
2022/01/30 07:34:22;;;;;;;16.87;4.90;;;;;;;;;;5035190;28;20216;-91
2022/01/30 07:36:56;;;;;;;22.13;4.80;;;;;;;;;;5035765;28;20216;-92
2022/01/30 07:39:31;;;;;;;12.13;4.30;;;;;;;;;;5034158;28;20231;-91
2022/01/30 07:42:04;;;;;;;8.57;3.13;;;;;;;;;;5035507;28;20216;-91
2022/01/30 07:44:34;;;;;;;9.07;4.33;;;;;;;;;;5035094;28;20268;-91
2022/01/30 07:47:05;;;;;;;8.67;4.03;;;;;;;;;;5035605;28;20236;-91
2022/01/30 07:49:49;;;;;;;11.47;3.67;;;;;;;;;;5017740;28;20184;-91
2022/01/30 07:52:26;;;;;;;10.80;3.70;;;;;;;;;;5035160;28;20211;-91
2022/01/30 07:55:01;;;;;;;5.43;2.10;;;;;;;;;;5035088;28;20278;-90
2022/01/30 07:57:34;;;;;;;6.10;3.73;;;;;;;;;;5035266;28;20211;-91
2022/01/30 08:00:03;;;;;;;8.10;3.50;;;;;;;;;;5034532;28;20205;-89
2022/01/30 08:02:42;;;;;;;9.27;2.90;;;;;;;;;;5034967;28;20215;-91
2022/01/30 08:05:20;;;;;;;9.20;4.80;;;;;;;;;;5034967;28;20191;-91
2022/01/30 08:07:54;;;;;;;7.87;3.03;;;;;;;;;;5018483;28;20303;-91
2022/01/30 08:10:26;;;;;;;10.73;3.60;;;;;;;;;;5034487;28;20203;-92
2022/01/30 08:12:58;;;;;;;13.37;3.27;;;;;;;;;;5033841;28;20223;-90
2022/01/30 08:15:29;;;;;;;16.00;4.20;;;;;;;;;;5034764;28;20250;-90
2022/01/30 08:18:02;;;;;;;7.77;1.77;;;;;;;;;;5035332;28;20201;-90
2022/01/30 08:20:36;;;;;;;13.90;4.37;;;;;;;;;;5034602;28;20250;-90
2022/01/30 08:23:12;;;;;;;24.83;5.37;;;;;;;;;;5034643;28;20259;-90
2022/01/30 08:25:42;;;;;;;14.90;4.20;;;;;;;;;;5034815;28;20180;-91
2022/01/30 08:28:22;;;;;;;11.10;4.70;;;;;;;;;;5033628;28;20205;-92
2022/01/30 08:30:54;;;;;;;18.90;4.67;;;;;;;;;;5034438;28;20231;-90
2022/01/30 08:33:34;;;;;;;7.00;3.43;;;;;;;;;;5034707;28;20228;-90
2022/01/30 08:36:04;;;;;;;8.13;2.20;;;;;;;;;;5032061;28;20256;-90
2022/01/30 08:38:39;;;;;;;10.27;3.43;;;;;;;;;;5034113;28;20207;-90
2022/01/30 08:41:12;;;;;;;6.33;3.10;;;;;;;;;;5034128;28;20204;-91
2022/01/30 08:43:42;;;;;;;10.50;4.27;;;;;;;;;;5034282;28;20193;-92
2022/01/30 08:46:13;;;;;;;7.30;3.67;;;;;;;;;;5033858;28;20201;-92
2022/01/30 08:48:44;;;;;;;17.67;4.23;;;;;;;;;;5033780;28;20200;-91
2022/01/30 08:51:14;;;;;;;16.67;4.57;;;;;;;;;;5033455;28;20192;-92
2022/01/30 08:53:55;;;;;;;20.87;4.67;;;;;;;;;;5033049;28;20251;-91
2022/01/30 08:56:26;;;;;;;5.63;3.80;;;;;;;;;;5033379;28;20185;-91
2022/01/30 08:59:04;;;;;;;9.60;4.30;;;;;;;;;;5033482;28;20274;-91
2022/01/30 09:02:00;;;;;;;3.83;2.03;;;;;;;;;;5032918;28;20231;-91
2022/01/30 09:04:33;;;;;;;9.53;3.83;;;;;;;;;;5016561;28;20207;-91
2022/01/30 09:07:12;;;;;;;12.50;4.17;;;;;;;;;;5034020;28;20201;-91
2022/01/30 09:09:51;;;;;;;9.00;6.27;;;;;;;;;;5013674;28;20196;-91
2022/01/30 09:12:22;;;;;;;4.77;2.97;;;;;;;;;;5013649;28;20225;-91
2022/01/30 09:15:00;;;;;;;12.67;4.67;;;;;;;;;;5013345;28;20212;-91
2022/01/30 09:17:31;;;;;;;26.27;6.37;;;;;;;;;;5013944;28;20320;-92
2022/01/30 09:20:00;;;;;;;11.97;4.40;;;;;;;;;;5012815;28;20241;-92
2022/01/30 09:22:30;;;;;;;37.50;5.60;;;;;;;;;;5012711;28;20228;-91
2022/01/30 09:25:08;;;;;;;7.10;3.20;;;;;;;;;;5012705;28;20230;-91
2022/01/30 09:27:41;;;;;;;10.43;4.30;;;;;;;;;;5012340;28;20236;-91
2022/01/30 09:30:17;;;;;;;14.13;4.97;;;;;;;;;;5013422;28;20223;-91
2022/01/30 09:32:47;;;;;;;10.40;4.10;;;;;;;;;;5012263;28;20231;-92
2022/01/30 09:35:20;;;;;;;11.97;3.30;;;;;;;;;;5013123;28;20259;-91
2022/01/30 09:37:52;;;;;;;9.73;3.13;;;;;;;;;;5012872;28;20205;-91
2022/01/30 09:40:31;;;;;;;10.80;3.60;;;;;;;;;;5012696;28;20292;-92
2022/01/30 09:43:01;;;;;;;12.07;4.20;;;;;;;;;;5012848;28;20196;-92
2022/01/30 09:45:33;;;;;;;23.97;4.90;;;;;;;;;;5013066;28;20198;-92
2022/01/30 09:48:04;;;;;;;8.70;3.90;;;;;;;;;;5012812;28;20221;-91
2022/01/30 09:50:35;;;;;;;8.63;2.70;;;;;;;;;;5012611;28;20218;-91
2022/01/30 09:53:07;;;;;;;6.97;3.47;;;;;;;;;;5012219;28;20238;-91
2022/01/30 09:55:43;;;;;;;9.67;2.50;;;;;;;;;;5013205;28;20201;-90
2022/01/30 09:58:16;;;;;;;7.60;2.37;;;;;;;;;;5013328;28;20201;-91
2022/01/30 10:01:05;;;;;;;14.93;4.83;;;;;;;;;;5012521;28;20209;-90
2022/01/30 10:03:37;;;;;;;11.87;3.87;;;;;;;;;;5013010;28;20233;-91
2022/01/30 10:06:20;;;;;;;19.00;4.70;;;;;;;;;;5013022;28;20209;-92
2022/01/30 10:08:55;;;;;;;14.23;5.27;;;;;;;;;;5026734;28;20242;-91
2022/01/30 10:11:49;;;;;;;9.43;3.73;;;;;;;;;;5033299;28;20217;-93
2022/01/30 10:14:22;;;;;;;14.83;4.00;;;;;;;;;;5035551;28;20219;-92
2022/01/30 10:17:24;;;;;;;7.87;3.60;;;;;;;;;;5036051;28;20267;-92
2022/01/30 10:20:11;;;;;;;12.80;4.57;;;;;;;;;;5036615;28;20238;-92
2022/01/30 10:22:52;;;;;;;10.93;2.60;;;;;;;;;;5037753;28;20220;-92
2022/01/30 10:25:26;;;;;;;10.53;3.60;;;;;;;;;;5037595;28;20193;-91
2022/01/30 10:28:09;;;;;;;9.13;2.73;;;;;;;;;;5037778;28;20347;-91
2022/01/30 10:30:42;;;;;;;13.77;4.77;;;;;;;;;;5037939;28;20218;-92
2022/01/30 10:33:19;;;;;;;12.23;3.97;;;;;;;;;;5036360;28;20285;-92
2022/01/30 10:35:56;;;;;;;2.40;0.90;;;;;;;;;;5019528;28;20208;-92
2022/01/30 10:38:33;;;;;;;16.73;4.00;;;;;;;;;;5035976;28;20212;-91
2022/01/30 10:41:12;;;;;;;9.83;4.63;;;;;;;;;;5035776;28;20196;-91
2022/01/30 10:44:00;;;;;;;6.10;2.97;;;;;;;;;;5019627;28;20201;-92
2022/01/30 10:46:36;;;;;;;20.70;2.63;;;;;;;;;;5035675;28;20215;-92
2022/01/30 10:49:10;;;;;;;14.00;5.87;;;;;;;;;;5036723;28;20207;-92
2022/01/30 10:52:00;;;;;;;8.30;2.33;;;;;;;;;;5036218;28;20201;-91
2022/01/30 10:54:32;;;;;;;15.60;5.57;;;;;;;;;;5035297;28;20230;-92
2022/01/30 10:57:08;;;;;;;5.63;2.53;;;;;;;;;;5034164;28;20217;-92
2022/01/30 10:59:45;;;;;;;17.03;5.97;;;;;;;;;;5033595;28;20205;-92
2022/01/30 11:02:19;;;;;;;11.50;3.80;;;;;;;;;;5033850;28;20217;-92
2022/01/30 11:04:52;;;;;;;14.50;5.63;;;;;;;;;;5033525;28;20229;-92
2022/01/30 11:07:30;;;;;;;9.63;3.73;;;;;;;;;;5034836;28;20281;-92
2022/01/30 11:10:21;;;;;;;14.80;4.57;;;;;;;;;;5035099;28;20209;-92
2022/01/30 11:13:07;;;;;;;12.33;4.43;;;;;;;;;;5034753;28;20209;-92
2022/01/30 11:15:43;;;;;;;6.20;2.77;;;;;;;;;;5034953;28;20221;-92
2022/01/30 11:18:22;;;;;;;11.63;4.53;;;;;;;;;;5035199;28;20205;-92
2022/01/30 11:20:53;;;;;;;16.30;5.90;;;;;;;;;;5034436;28;20263;-92
2022/01/30 11:23:24;;;;;;;4.97;2.97;;;;;;;;;;5033944;28;20208;-92
2022/01/30 11:25:58;;;;;;;5.37;3.33;;;;;;;;;;5034455;28;20223;-92
2022/01/30 11:28:33;;;;;;;13.97;5.17;;;;;;;;;;5034376;28;20272;-91
2022/01/30 11:31:07;;;;;;;7.23;2.57;;;;;;;;;;5032985;28;20274;-91
2022/01/30 11:33:42;;;;;;;13.30;4.37;;;;;;;;;;5032932;28;20260;-92
2022/01/30 11:36:12;;;;;;;2.23;2.07;;;;;;;;;;5033186;28;20214;-92
2022/01/30 11:38:43;;;;;;;14.17;4.67;;;;;;;;;;5032594;28;20228;-92
2022/01/30 11:41:15;;;;;;;4.80;2.57;;;;;;;;;;5033116;28;20217;-92
2022/01/30 11:44:03;;;;;;;1.73;1.63;;;;;;;;;;5032596;28;20203;-92
2022/01/30 11:46:37;;;;;;;10.90;4.20;;;;;;;;;;5032062;28;20207;-92
2022/01/30 11:49:15;;;;;;;16.70;5.23;;;;;;;;;;5031806;28;20191;-92
2022/01/30 11:51:51;;;;;;;23.27;4.63;;;;;;;;;;5030347;28;20217;-92
2022/01/30 11:54:44;;;;;;;8.47;3.23;;;;;;;;;;5029580;28;20248;-92
2022/01/30 11:57:29;;;;;;;7.60;2.63;;;;;;;;;;5010650;28;20208;-92
2022/01/30 12:00:00;;;;;;;15.03;4.80;;;;;;;;;;5015144;28;20205;-92
2022/01/30 12:02:33;;;;;;;14.90;4.50;;;;;;;;;;5030259;28;20233;-93
2022/01/30 12:05:07;;;;;;;13.20;3.17;;;;;;;;;;5029497;28;20228;-92
2022/01/30 12:07:37;;;;;;;11.70;2.97;;;;;;;;;;5031113;28;20199;-92
2022/01/30 12:10:24;;;;;;;9.10;3.13;;;;;;;;;;5030866;28;20240;-92
2022/01/30 12:12:54;;;;;;;10.67;4.80;;;;;;;;;;5031428;28;20219;-92
2022/01/30 12:15:39;;;;;;;17.70;3.13;;;;;;;;;;5031206;28;20224;-92
2022/01/30 12:18:10;;;;;;;13.37;4.93;;;;;;;;;;5031118;28;20271;-93
2022/01/30 12:21:00;;;;;;;17.50;4.70;;;;;;;;;;5030964;28;20249;-93
2022/01/30 12:23:30;;;;;;;12.67;4.57;;;;;;;;;;5031120;28;20230;-91
2022/01/30 12:26:04;;;;;;;3.10;2.80;;;;;;;;;;5030455;28;20202;-91
2022/01/30 12:28:46;;;;;;;7.30;2.50;;;;;;;;;;5029994;28;20211;-91
2022/01/30 12:31:29;;;;;;;11.83;3.47;;;;;;;;;;5031065;28;20190;-92
2022/01/30 12:34:04;;;;;;;5.80;3.70;;;;;;;;;;5030614;28;20230;-90
2022/01/30 12:36:35;;;;;;;14.00;4.60;;;;;;;;;;5027738;28;20285;-91
2022/01/30 12:39:06;;;;;;;9.20;3.43;;;;;;;;;;5027658;28;20192;-91
2022/01/30 12:41:38;;;;;;;14.57;5.27;;;;;;;;;;5026127;28;20208;-91
2022/01/30 12:44:08;;;;;;;10.87;3.10;;;;;;;;;;5026203;28;20204;-91
2022/01/30 12:46:39;;;;;;;9.27;3.17;;;;;;;;;;5026190;28;20208;-92
2022/01/30 12:49:11;;;;;;;8.00;3.57;;;;;;;;;;5027543;28;20225;-92
2022/01/30 12:51:41;;;;;;;10.30;3.50;;;;;;;;;;5027003;28;20213;-92
2022/01/30 12:54:11;;;;;;;6.10;3.37;;;;;;;;;;5027674;28;20222;-92
2022/01/30 12:56:40;;;;;;;20.83;6.63;;;;;;;;;;5028368;28;20205;-92
2022/01/30 12:59:10;;;;;;;17.50;4.63;;;;;;;;;;5029326;28;20213;-93
2022/01/30 13:01:42;;;;;;;5.47;2.53;;;;;;;;;;5029417;28;20224;-93
2022/01/30 13:04:16;;;;;;;5.23;3.10;;;;;;;;;;5028380;28;20227;-93
2022/01/30 13:06:46;;;;;;;7.97;3.33;;;;;;;;;;5028001;28;20241;-93
2022/01/30 13:09:19;;;;;;;3.63;1.83;;;;;;;;;;5028255;28;20212;-92
2022/01/30 13:11:48;;;;;;;8.20;2.73;;;;;;;;;;5027666;28;20207;-92
2022/01/30 13:14:18;;;;;;;12.13;4.53;;;;;;;;;;5027408;28;20220;-92
2022/01/30 13:16:48;;;;;;;8.07;3.00;;;;;;;;;;5027197;28;20214;-91
2022/01/30 13:19:31;;;;;;;11.17;3.17;;;;;;;;;;5027082;28;20201;-91
2022/01/30 13:22:01;;;;;;;10.70;3.73;;;;;;;;;;5027203;28;20228;-91
2022/01/30 13:24:31;;;;;;;16.87;4.57;;;;;;;;;;5026113;28;20244;-91
2022/01/30 13:27:01;;;;;;;13.40;3.53;;;;;;;;;;5027013;28;20202;-93
2022/01/30 13:29:34;;;;;;;9.50;4.37;;;;;;;;;;5026530;28;20199;-93
2022/01/30 13:32:07;;;;;;;7.47;2.07;;;;;;;;;;5026633;28;20202;-94
2022/01/30 13:34:40;;;;;;;11.93;2.40;;;;;;;;;;5027111;28;20268;-93
2022/01/30 13:37:10;;;;;;;13.90;4.37;;;;;;;;;;5028052;28;20216;-90
2022/01/30 13:39:44;;;;;;;9.37;3.63;;;;;;;;;;5026505;28;20207;-91
2022/01/30 13:42:43;;;;;;;13.50;4.10;;;;;;;;;;5026353;28;20210;-91
2022/01/30 13:48:04;;;;;;;14.83;3.77;;;;;;;;;;5024715;28;20252;-91
2022/01/30 13:50:36;;;;;;;5.30;2.60;;;;;;;;;;5025829;28;20242;-91
2022/01/30 13:53:06;;;;;;;7.70;2.83;;;;;;;;;;5025900;28;20210;-91
2022/01/30 13:55:36;;;;;;;5.93;2.60;;;;;;;;;;5024941;28;20233;-91
2022/01/30 13:58:06;;;;;;;7.13;2.07;;;;;;;;;;5025361;28;20285;-92
2022/01/30 14:00:36;;;;;;;6.23;3.23;;;;;;;;;;5024483;28;20210;-92
2022/01/30 14:03:08;;;;;;;14.77;5.47;;;;;;;;;;5026418;28;20248;-92
2022/01/30 14:05:42;;;;;;;1.80;1.30;;;;;;;;;;5025960;28;20202;-91
2022/01/30 14:08:12;;;;;;;6.60;2.10;;;;;;;;;;5027999;28;20234;-92
2022/01/30 14:10:42;;;;;;;6.77;2.17;;;;;;;;;;5029398;28;20253;-92
2022/01/30 14:13:17;;;;;;;1.10;1.10;;;;;;;;;;5030613;28;20196;-91
2022/01/30 14:16:00;;;;;;;13.60;4.23;;;;;;;;;;5030450;28;20224;-92
2022/01/30 14:18:34;;;;;;;16.83;3.67;;;;;;;;;;5029802;28;20206;-92
2022/01/30 14:21:19;;;;;;;6.03;1.57;;;;;;;;;;5030870;28;20248;-92
2022/01/30 14:23:49;;;;;;;2.40;2.30;;;;;;;;;;5029714;28;20209;-91
2022/01/30 14:26:23;;;;;;;24.17;3.50;;;;;;;;;;5030034;28;20195;-91
2022/01/30 14:29:08;;;;;;;6.47;2.90;;;;;;;;;;5029333;28;20301;-92
2022/01/30 14:31:52;;;;;;;7.07;3.00;;;;;;;;;;5029892;28;20215;-93
2022/01/30 14:34:22;;;;;;;2.73;1.97;;;;;;;;;;5029260;28;20217;-92
2022/01/30 14:36:59;;;;;;;12.10;3.13;;;;;;;;;;5028356;28;20240;-92
2022/01/30 14:39:28;;;;;;;29.70;4.07;;;;;;;;;;5028609;28;20217;-93
2022/01/30 14:41:58;;;;;;;5.43;2.83;;;;;;;;;;5028940;28;20209;-92
2022/01/30 14:44:28;;;;;;;1.07;1.03;;;;;;;;;;5029162;28;20210;-91
2022/01/30 14:46:57;;;;;;;3.13;1.47;;;;;;;;;;5029929;28;20203;-91
2022/01/30 14:49:28;;;;;;;7.03;3.87;;;;;;;;;;5029732;28;20201;-92
2022/01/30 14:51:59;;;;;;;12.43;2.97;;;;;;;;;;5030366;28;20207;-91
2022/01/30 14:54:31;;;;;;;9.43;1.57;;;;;;;;;;5030070;28;20198;-92
2022/01/30 14:57:06;;;;;;;8.97;1.93;;;;;;;;;;5029390;28;20225;-92
2022/01/30 14:59:36;;;;;;;7.73;2.87;;;;;;;;;;5031518;28;20326;-92
2022/01/30 15:02:06;;;;;;;10.97;3.53;;;;;;;;;;5034048;28;20255;-92
2022/01/30 15:04:36;;;;;;;18.60;4.83;;;;;;;;;;5034792;28;20200;-90
2022/01/30 15:07:09;;;;;;;3.43;2.43;;;;;;;;;;5034096;28;20202;-91
2022/01/30 15:09:39;;;;;;;3.50;2.30;;;;;;;;;;5034356;28;20189;-92
2022/01/30 15:12:12;;;;;;;4.70;3.20;;;;;;;;;;5034603;28;20201;-92
2022/01/30 15:14:51;;;;;;;10.67;2.43;;;;;;;;;;5033782;28;20269;-91
2022/01/30 15:17:32;;;;;;;14.67;5.47;;;;;;;;;;5034452;28;20213;-92
2022/01/30 15:20:13;;;;;;;4.03;2.60;;;;;;;;;;5034388;28;20245;-92
2022/01/30 15:22:47;;;;;;;8.03;2.87;;;;;;;;;;5034394;28;20219;-91
2022/01/30 15:25:21;;;;;;;8.17;1.97;;;;;;;;;;5035498;28;20232;-91
2022/01/30 15:27:58;;;;;;;3.60;1.23;;;;;;;;;;5035747;28;20198;-92
2022/01/30 15:30:30;;;;;;;4.20;2.40;;;;;;;;;;5034168;28;20211;-91
2022/01/30 15:33:02;;;;;;;4.40;1.93;;;;;;;;;;5034135;28;20403;-91
2022/01/30 15:35:34;;;;;;;6.03;5.43;;;;;;;;;;5033620;28;20222;-91
2022/01/30 15:38:06;;;;;;;1.37;1.37;;;;;;;;;;5034064;28;20230;-92
2022/01/30 15:40:37;;;;;;;4.77;2.23;;;;;;;;;;5032666;28;20213;-92
2022/01/30 15:43:29;;;;;;;3.10;1.93;;;;;;;;;;5033959;28;20200;-91
2022/01/30 15:49:08;;;;;;;6.20;2.77;;;;;;;;;;5033842;28;20182;-93
2022/01/30 15:51:41;;;;;;;5.50;2.27;;;;;;;;;;5032838;28;20209;-92
2022/01/30 15:54:14;;;;;;;3.63;1.37;;;;;;;;;;5032785;28;20210;-92
2022/01/30 15:56:45;;;;;;;7.50;2.90;;;;;;;;;;5033220;28;20220;-90
2022/01/30 15:59:25;;;;;;;5.37;1.90;;;;;;;;;;5033501;28;20270;-91
2022/01/30 16:01:55;;;;;;;12.47;5.20;;;;;;;;;;5033928;28;20210;-91